Time,TemperatureF,DewpointF,PressureIn,WindDirection,WindDirectionDegrees,WindSpeedMPH,WindSpeedGustMPH,Humidity,HourlyPrecipIn,Conditions,Clouds,dailyrainin,SoftwareType,DateUTC
2013-03-07 00:00:00,19.0,16.0,-100.00,WSW,247,13.0,16.0,89,-99.99,,,-99.99,,2013-03-07 07:00:00,
2013-03-07 00:32:00,19.0,16.0,-100.00,WSW,247,13.0,16.0,89,-99.99,,,-99.99,,2013-03-07 07:32:00,
2013-03-07 00:43:00,19.0,16.0,-100.00,WSW,247,13.0,16.0,89,-99.99,,,-99.99,,2013-03-07 07:43:00,
2013-03-07 00:52:00,19.0,16.0,-100.00,WSW,247,13.0,16.0,89,-99.99,,,-99.99,,2013-03-07 07:52:00,
2013-03-07 01:00:00,19.0,16.0,-100.00,WSW,250,9.0,13.0,89,-99.99,,,-99.99,,2013-03-07 08:00:00,
2013-03-07 01:34:00,19.0,16.0,-100.00,WSW,250,9.0,13.0,89,-99.99,,,-99.99,,2013-03-07 08:34:00,
2013-03-07 01:44:00,19.0,16.0,-100.00,WSW,250,9.0,13.0,89,-99.99,,,-99.99,,2013-03-07 08:44:00,
2013-03-07 01:53:00,19.0,16.0,-100.00,WSW,250,9.0,13.0,89,-99.99,,,-99.99,,2013-03-07 08:53:00,
2013-03-07 02:00:00,19.0,16.0,-100.00,WSW,245,7.0,9.0,89,-99.99,,,-99.99,,2013-03-07 09:00:00,
2013-03-07 02:33:00,19.0,16.0,-100.00,WSW,245,7.0,9.0,89,-99.99,,,-99.99,,2013-03-07 09:33:00,
2013-03-07 02:43:00,19.0,16.0,-100.00,WSW,245,7.0,9.0,89,-99.99,,,-99.99,,2013-03-07 09:43:00,
2013-03-07 02:52:00,19.0,16.0,-100.00,WSW,245,7.0,9.0,89,-99.99,,,-99.99,,2013-03-07 09:52:00,
2013-03-07 03:00:00,18.0,16.0,-100.00,SW,226,5.0,8.0,88,-99.99,,,-99.99,,2013-03-07 10:00:00,
2013-03-07 03:33:00,18.0,16.0,-100.00,SW,226,5.0,8.0,88,-99.99,,,-99.99,,2013-03-07 10:33:00,
2013-03-07 03:43:00,18.0,16.0,-100.00,SW,226,5.0,8.0,88,-99.99,,,-99.99,,2013-03-07 10:43:00,
2013-03-07 03:53:00,18.0,16.0,-100.00,SW,226,5.0,8.0,88,-99.99,,,-99.99,,2013-03-07 10:53:00,
2013-03-07 04:00:00,18.0,15.0,-100.00,SW,219,4.0,7.0,88,-99.99,,,-99.99,,2013-03-07 11:00:00,
2013-03-07 04:34:00,18.0,15.0,-100.00,SW,219,4.0,7.0,88,-99.99,,,-99.99,,2013-03-07 11:34:00,
2013-03-07 04:44:00,18.0,15.0,-100.00,SW,219,4.0,7.0,88,-99.99,,,-99.99,,2013-03-07 11:44:00,
2013-03-07 04:53:00,18.0,15.0,-100.00,SW,219,4.0,7.0,88,-99.99,,,-99.99,,2013-03-07 11:53:00,
2013-03-07 05:00:00,18.0,15.0,-100.00,SW,224,3.0,6.0,88,-99.99,,,-99.99,,2013-03-07 12:00:00,
2013-03-07 05:34:00,18.0,15.0,-100.00,SW,224,3.0,6.0,88,-99.99,,,-99.99,,2013-03-07 12:34:00,
2013-03-07 05:43:00,18.0,15.0,-100.00,SW,224,3.0,6.0,88,-99.99,,,-99.99,,2013-03-07 12:43:00,
2013-03-07 05:52:00,18.0,15.0,-100.00,SW,224,3.0,6.0,88,-99.99,,,-99.99,,2013-03-07 12:52:00,
2013-03-07 07:00:00,17.0,15.0,-100.00,SSE,159,2.0,4.0,88,-99.99,,,-99.99,,2013-03-07 14:00:00,
2013-03-07 07:33:00,17.0,15.0,-100.00,SSE,159,2.0,4.0,88,-99.99,,,-99.99,,2013-03-07 14:33:00,
2013-03-07 07:43:00,17.0,15.0,-100.00,SSE,159,2.0,4.0,88,-99.99,,,-99.99,,2013-03-07 14:43:00,
2013-03-07 07:53:00,17.0,15.0,-100.00,SSE,159,2.0,4.0,88,-99.99,,,-99.99,,2013-03-07 14:53:00,
2013-03-07 08:33:00,16.0,14.0,-100.00,SSE,148,2.0,3.0,88,-99.99,,,-99.99,,2013-03-07 15:33:00,
2013-03-07 08:43:00,16.0,14.0,-100.00,SSE,148,2.0,3.0,88,-99.99,,,-99.99,,2013-03-07 15:43:00,
2013-03-07 08:52:00,16.0,14.0,-100.00,SSE,148,2.0,3.0,88,-99.99,,,-99.99,,2013-03-07 15:52:00,
2013-03-07 09:00:00,19.0,16.0,-100.00,ESE,108,2.0,3.0,88,-99.99,,,-99.99,,2013-03-07 16:00:00,
2013-03-07 09:33:00,19.0,16.0,-100.00,ESE,108,2.0,3.0,88,-99.99,,,-99.99,,2013-03-07 16:33:00,
2013-03-07 09:43:00,19.0,16.0,-100.00,ESE,108,2.0,3.0,88,-99.99,,,-99.99,,2013-03-07 16:43:00,
2013-03-07 09:53:00,19.0,16.0,-100.00,ESE,108,2.0,3.0,88,-99.99,,,-99.99,,2013-03-07 16:53:00,
2013-03-07 10:00:00,19.0,16.0,-100.00,SE,124,3.0,5.0,87,-99.99,,,-99.99,,2013-03-07 17:00:00,
2013-03-07 10:33:00,19.0,16.0,-100.00,SE,124,3.0,5.0,87,-99.99,,,-99.99,,2013-03-07 17:33:00,
2013-03-07 10:44:00,19.0,16.0,-100.00,SE,124,3.0,5.0,87,-99.99,,,-99.99,,2013-03-07 17:44:00,
2013-03-07 10:54:00,19.0,16.0,-100.00,SE,124,3.0,5.0,87,-99.99,,,-99.99,,2013-03-07 17:54:00,
2013-03-07 11:00:00,23.0,20.0,-100.00,SE,144,3.0,5.0,88,-99.99,,,-99.99,,2013-03-07 18:00:00,
2013-03-07 11:32:00,23.0,20.0,-100.00,SE,144,3.0,5.0,88,-99.99,,,-99.99,,2013-03-07 18:32:00,
2013-03-07 11:42:00,23.0,20.0,-100.00,SE,144,3.0,5.0,88,-99.99,,,-99.99,,2013-03-07 18:42:00,
2013-03-07 11:52:00,23.0,20.0,-100.00,SE,144,3.0,5.0,88,-99.99,,,-99.99,,2013-03-07 18:52:00,
2013-03-07 12:00:00,25.0,23.0,-100.00,SSE,166,3.0,4.0,90,-99.99,,,-99.99,,2013-03-07 19:00:00,
2013-03-07 12:35:00,25.0,23.0,-100.00,SSE,166,3.0,4.0,90,-99.99,,,-99.99,,2013-03-07 19:35:00,
2013-03-07 12:44:00,25.0,23.0,-100.00,SSE,166,3.0,4.0,90,-99.99,,,-99.99,,2013-03-07 19:44:00,
2013-03-07 12:52:00,25.0,23.0,-100.00,SSE,166,3.0,4.0,90,-99.99,,,-99.99,,2013-03-07 19:52:00,
2013-03-07 13:00:00,26.0,24.0,-100.00,South,189,3.0,6.0,90,-99.99,,,-99.99,,2013-03-07 20:00:00,
2013-03-07 13:34:00,26.0,24.0,-100.00,South,189,3.0,6.0,90,-99.99,,,-99.99,,2013-03-07 20:34:00,
2013-03-07 13:43:00,26.0,24.0,-100.00,South,189,3.0,6.0,90,-99.99,,,-99.99,,2013-03-07 20:43:00,
2013-03-07 13:53:00,26.0,24.0,-100.00,South,189,3.0,6.0,90,-99.99,,,-99.99,,2013-03-07 20:53:00,
2013-03-07 14:00:00,30.0,27.0,-100.00,SE,142,1.0,3.0,89,-99.99,,,-99.99,,2013-03-07 21:00:00,
2013-03-07 14:33:00,30.0,27.0,-100.00,SE,142,1.0,3.0,89,-99.99,,,-99.99,,2013-03-07 21:33:00,
2013-03-07 14:43:00,30.0,27.0,-100.00,SE,142,1.0,3.0,89,-99.99,,,-99.99,,2013-03-07 21:43:00,
2013-03-07 14:52:00,30.0,27.0,-100.00,SE,142,1.0,3.0,89,-99.99,,,-99.99,,2013-03-07 21:52:00,
2013-03-07 15:00:00,27.0,25.0,-100.00,ESE,122,3.0,5.0,88,-99.99,,,-99.99,,2013-03-07 22:00:00,
2013-03-07 15:33:00,27.0,25.0,-100.00,ESE,122,3.0,5.0,88,-99.99,,,-99.99,,2013-03-07 22:33:00,
2013-03-07 15:43:00,27.0,25.0,-100.00,ESE,122,3.0,5.0,88,-99.99,,,-99.99,,2013-03-07 22:43:00,
2013-03-07 15:54:00,27.0,25.0,-100.00,ESE,122,3.0,5.0,88,-99.99,,,-99.99,,2013-03-07 22:54:00,
2013-03-07 16:00:00,23.0,20.0,-100.00,ENE,77,3.0,5.0,88,-99.99,,,-99.99,,2013-03-07 23:00:00,
2013-03-07 16:44:00,23.0,20.0,-100.00,ENE,77,3.0,5.0,88,-99.99,,,-99.99,,2013-03-07 23:44:00,
2013-03-07 16:53:00,23.0,20.0,-100.00,ENE,77,3.0,5.0,88,-99.99,,,-99.99,,2013-03-07 23:53:00,
2013-03-07 17:00:00,23.0,20.0,-100.00,NNE,29,2.0,5.0,88,-99.99,,,-99.99,,2013-03-08 00:00:00,
2013-03-07 17:34:00,23.0,20.0,-100.00,NNE,29,2.0,5.0,88,-99.99,,,-99.99,,2013-03-08 00:34:00,
2013-03-07 17:44:00,23.0,20.0,-100.00,NNE,29,2.0,5.0,88,-99.99,,,-99.99,,2013-03-08 00:44:00,
2013-03-07 17:53:00,23.0,20.0,-100.00,NNE,29,2.0,5.0,88,-99.99,,,-99.99,,2013-03-08 00:53:00,
2013-03-07 18:00:00,21.0,18.0,-100.00,NNE,14,5.0,8.0,87,-99.99,,,-99.99,,2013-03-08 01:00:00,
2013-03-07 18:33:00,21.0,18.0,-100.00,NNE,14,5.0,8.0,87,-99.99,,,-99.99,,2013-03-08 01:33:00,
2013-03-07 18:42:00,21.0,18.0,-100.00,NNE,14,5.0,8.0,87,-99.99,,,-99.99,,2013-03-08 01:42:00,
2013-03-07 18:52:00,21.0,18.0,-100.00,NNE,14,5.0,8.0,87,-99.99,,,-99.99,,2013-03-08 01:52:00,
2013-03-07 19:00:00,19.0,16.0,-100.00,NE,46,9.0,11.0,88,-99.99,,,-99.99,,2013-03-08 02:00:00,
2013-03-07 19:32:00,19.0,16.0,-100.00,NE,46,9.0,11.0,88,-99.99,,,-99.99,,2013-03-08 02:32:00,
2013-03-07 19:42:00,19.0,16.0,-100.00,NE,46,9.0,11.0,88,-99.99,,,-99.99,,2013-03-08 02:42:00,
2013-03-07 19:52:00,19.0,16.0,-100.00,NE,46,9.0,11.0,88,-99.99,,,-99.99,,2013-03-08 02:52:00,
2013-03-07 20:00:00,18.0,15.0,-100.00,NE,51,10.0,11.0,86,-99.99,,,-99.99,,2013-03-08 03:00:00,
2013-03-07 20:33:00,18.0,15.0,-100.00,NE,51,10.0,11.0,86,-99.99,,,-99.99,,2013-03-08 03:33:00,
2013-03-07 20:43:00,18.0,15.0,-100.00,NE,51,10.0,11.0,86,-99.99,,,-99.99,,2013-03-08 03:43:00,
2013-03-07 20:52:00,18.0,15.0,-100.00,NE,51,10.0,11.0,86,-99.99,,,-99.99,,2013-03-08 03:52:00,
2013-03-07 21:00:00,18.0,15.0,-100.00,NE,56,10.0,12.0,86,-99.99,,,-99.99,,2013-03-08 04:00:00,
2013-03-07 21:32:00,18.0,15.0,-100.00,NE,56,10.0,12.0,86,-99.99,,,-99.99,,2013-03-08 04:32:00,
2013-03-07 21:42:00,18.0,15.0,-100.00,NE,56,10.0,12.0,86,-99.99,,,-99.99,,2013-03-08 04:42:00,
2013-03-07 21:52:00,18.0,15.0,-100.00,NE,56,10.0,12.0,86,-99.99,,,-99.99,,2013-03-08 04:52:00,
2013-03-07 22:00:00,19.0,16.0,-100.00,ENE,59,9.0,11.0,85,-99.99,,,-99.99,,2013-03-08 05:00:00,
2013-03-07 22:33:00,19.0,16.0,-100.00,ENE,59,9.0,11.0,85,-99.99,,,-99.99,,2013-03-08 05:33:00,
2013-03-07 22:42:00,19.0,16.0,-100.00,ENE,59,9.0,11.0,85,-99.99,,,-99.99,,2013-03-08 05:42:00,
2013-03-07 22:52:00,19.0,16.0,-100.00,ENE,59,9.0,11.0,85,-99.99,,,-99.99,,2013-03-08 05:52:00,
2013-03-07 23:00:00,20.0,15.0,-100.00,ENE,64,8.0,10.0,81,-99.99,,,-99.99,,2013-03-08 06:00:00,
2013-03-07 23:32:00,20.0,15.0,-100.00,ENE,64,8.0,10.0,81,-99.99,,,-99.99,,2013-03-08 06:32:00,
2013-03-07 23:42:00,20.0,15.0,-100.00,ENE,64,8.0,10.0,81,-99.99,,,-99.99,,2013-03-08 06:42:00,
2013-03-07 23:52:00,20.0,15.0,-100.00,ENE,64,8.0,10.0,81,-99.99,,,-99.99,,2013-03-08 06:52:00,